createdAt,value
2022-10-25T00:00:15.902Z,99922.88
2022-10-25T00:02:42.701Z,99889.25
2022-10-25T00:05:14.465Z,99880.41
2022-10-25T00:07:41.469Z,99930.00
2022-10-25T00:10:08.458Z,99924.22
2022-10-25T00:12:41.624Z,99914.56
2022-10-25T00:15:09.005Z,99916.84
2022-10-25T00:17:35.701Z,99916.28
2022-10-25T00:20:02.439Z,99921.41
2022-10-25T00:22:29.241Z,99925.69
2022-10-25T00:24:55.928Z,99907.63
2022-10-25T00:27:22.608Z,99920.25
2022-10-25T00:29:49.283Z,99918.94
2022-10-25T00:32:15.887Z,99924.41
2022-10-25T00:34:42.559Z,99922.47
2022-10-25T00:37:09.325Z,99931.00
2022-10-25T00:39:35.946Z,99926.38
2022-10-25T00:42:02.891Z,99915.94
2022-10-25T00:44:38.568Z,99928.34
2022-10-25T00:47:25.449Z,99919.44
2022-10-25T00:50:11.023Z,99918.00
2022-10-25T00:52:40.454Z,99927.69
2022-10-25T00:55:09.849Z,99918.72
2022-10-25T00:57:47.164Z,99928.44
2022-10-25T01:00:14.287Z,99920.22
2022-10-25T01:02:41.131Z,99907.94
2022-10-25T01:05:09.707Z,99903.72
2022-10-25T01:07:37.252Z,99891.44
2022-10-25T01:10:04.762Z,99912.03
2022-10-25T01:12:31.427Z,99909.13
2022-10-25T01:14:58.411Z,99882.28
2022-10-25T01:17:37.506Z,99913.31
2022-10-25T01:20:16.652Z,99908.19
2022-10-25T01:22:58.176Z,99913.50
2022-10-25T01:26:01.966Z,99918.44
2022-10-25T01:29:08.995Z,99914.75
2022-10-25T01:31:48.545Z,99914.97
2022-10-25T01:34:28.537Z,99913.75
2022-10-25T01:37:18.032Z,99907.88
2022-10-25T01:39:53.404Z,99909.69
2022-10-25T01:42:32.441Z,99897.91
2022-10-25T01:45:10.906Z,99906.38
2022-10-25T01:48:01.029Z,99909.38
2022-10-25T01:50:34.828Z,99915.50
2022-10-25T01:53:01.718Z,99909.94
2022-10-25T01:55:39.155Z,99896.09
2022-10-25T01:58:05.780Z,99918.00
2022-10-25T02:00:41.968Z,99871.63
2022-10-25T02:03:18.759Z,99916.00
2022-10-25T02:06:16.860Z,99911.53
2022-10-25T02:09:09.420Z,99910.28
2022-10-25T02:11:36.766Z,99900.81
2022-10-25T02:14:24.212Z,99905.88
2022-10-25T02:16:53.197Z,99915.97
2022-10-25T02:19:27.538Z,99896.75
2022-10-25T02:21:56.854Z,99901.88
2022-10-25T02:24:26.463Z,99906.00
2022-10-25T02:26:54.338Z,99903.56
2022-10-25T02:29:22.743Z,99901.94
2022-10-25T02:31:49.548Z,99883.88
2022-10-25T02:34:17.267Z,99897.84
2022-10-25T02:36:48.424Z,99897.66
2022-10-25T02:39:16.861Z,99893.78
2022-10-25T02:42:39.850Z,99895.63
2022-10-25T02:45:44.206Z,99884.97
2022-10-25T02:48:10.857Z,99890.31
2022-10-25T02:50:37.441Z,99905.91
2022-10-25T02:53:04.041Z,99902.00
2022-10-25T02:55:30.675Z,99895.84
2022-10-25T02:57:58.642Z,99876.16
2022-10-25T03:00:25.335Z,99900.19
2022-10-25T03:02:52.048Z,99863.84
2022-10-25T03:05:18.725Z,99867.97
2022-10-25T03:07:45.353Z,99896.25
2022-10-25T03:10:11.967Z,99901.56
2022-10-25T03:12:38.594Z,99902.97
2022-10-25T03:15:05.878Z,99887.56
2022-10-25T03:17:32.564Z,99906.19
2022-10-25T03:19:59.278Z,99907.84
2022-10-25T03:22:26.022Z,99912.13
2022-10-25T03:24:52.626Z,99902.31
2022-10-25T03:27:19.266Z,99915.88
2022-10-25T03:29:45.922Z,99910.94
2022-10-25T03:32:12.568Z,99913.84
2022-10-25T03:34:39.183Z,99916.50
2022-10-25T03:37:05.983Z,99897.00
2022-10-25T03:39:32.579Z,99916.47
2022-10-25T03:41:59.257Z,99915.81
2022-10-25T03:44:25.883Z,99909.22
2022-10-25T03:46:52.635Z,99923.19
2022-10-25T03:49:29.898Z,99922.34
2022-10-25T03:52:00.033Z,99921.31
2022-10-25T03:54:29.574Z,99929.31
2022-10-25T03:56:56.316Z,99938.81
2022-10-25T03:59:22.994Z,99931.47
2022-10-25T04:01:49.744Z,99886.94
2022-10-25T04:04:16.461Z,99930.28
2022-10-25T04:06:43.433Z,99928.88
2022-10-25T04:09:10.224Z,99942.41
2022-10-25T04:11:36.864Z,99933.19
2022-10-25T04:14:03.513Z,99937.72
2022-10-25T04:16:30.395Z,99924.59
2022-10-25T04:18:59.012Z,99930.31
2022-10-25T04:21:25.795Z,99903.66
2022-10-25T04:23:52.883Z,99922.94
2022-10-25T04:26:22.972Z,99933.03
2022-10-25T04:28:51.951Z,99932.81
2022-10-25T04:31:18.653Z,99932.22
2022-10-25T04:33:49.010Z,99912.91
2022-10-25T04:36:16.138Z,99935.50
2022-10-25T04:38:42.857Z,99933.22
2022-10-25T04:41:10.213Z,99941.22
2022-10-25T04:43:36.856Z,99904.28
2022-10-25T04:46:03.912Z,99941.25
2022-10-25T04:48:30.670Z,99915.16
2022-10-25T04:51:00.673Z,99947.59
2022-10-25T04:53:27.606Z,99924.41
2022-10-25T04:56:06.497Z,99943.44
2022-10-25T04:58:34.086Z,99951.25
2022-10-25T05:01:04.279Z,99942.22
2022-10-25T05:03:31.773Z,99937.91
2022-10-25T05:06:26.731Z,99948.78
2022-10-25T05:08:54.349Z,99952.13
2022-10-25T05:11:24.223Z,99956.22
2022-10-25T05:13:51.036Z,99953.91
2022-10-25T05:16:23.294Z,99954.53
2022-10-25T05:18:51.779Z,99968.06
2022-10-25T05:21:18.666Z,99957.81
2022-10-25T05:23:45.908Z,99961.28
2022-10-25T05:26:18.901Z,99962.53
2022-10-25T05:28:47.678Z,99944.47
2022-10-25T05:31:18.377Z,99953.56
2022-10-25T05:33:45.895Z,99954.97
2022-10-25T05:36:14.075Z,99961.75
2022-10-25T05:38:41.261Z,99959.50
2022-10-25T05:41:09.879Z,99961.13
2022-10-25T05:43:36.552Z,99959.06
2022-10-25T05:46:06.303Z,99939.19
2022-10-25T05:48:34.637Z,99968.94
2022-10-25T05:51:28.820Z,99976.34
2022-10-25T05:54:00.730Z,99979.81
2022-10-25T05:56:29.482Z,99971.81
2022-10-25T05:58:57.174Z,99971.38
2022-10-25T06:01:26.615Z,99947.38
2022-10-25T06:03:55.499Z,99980.84
2022-10-25T06:06:22.965Z,99976.53
2022-10-25T06:08:50.178Z,99981.44
2022-10-25T06:11:19.506Z,99983.28
2022-10-25T06:13:46.532Z,99982.91
2022-10-25T06:16:16.314Z,99972.44
2022-10-25T06:18:43.751Z,99985.97
2022-10-25T06:21:12.414Z,99982.28
2022-10-25T06:23:40.059Z,99991.09
2022-10-25T06:26:09.368Z,99997.44
2022-10-25T06:28:36.594Z,99983.09
2022-10-25T06:31:08.785Z,99969.75
2022-10-25T06:33:35.953Z,100008.34
2022-10-25T06:36:04.594Z,100012.00
2022-10-25T06:38:31.674Z,99995.22
2022-10-25T06:40:59.909Z,100009.34
2022-10-25T06:43:27.398Z,100012.44
2022-10-25T06:45:54.557Z,100004.66
2022-10-25T06:48:21.757Z,100020.66
2022-10-25T06:50:52.072Z,100017.38
2022-10-25T06:53:18.957Z,100007.91
2022-10-25T06:55:47.093Z,100027.81
2022-10-25T06:58:13.741Z,100024.56
2022-10-25T07:00:40.380Z,100030.09
2022-10-25T07:03:06.965Z,99997.88
2022-10-25T07:05:33.685Z,100029.09
2022-10-25T07:08:00.384Z,100035.44
2022-10-25T07:10:27.061Z,100024.97
2022-10-25T07:12:53.735Z,100028.03
2022-10-25T07:17:54.750Z,100039.31
2022-10-25T07:20:21.452Z,100044.84
2022-10-25T07:22:50.157Z,100041.78
2022-10-25T07:25:16.936Z,100052.25
2022-10-25T07:27:43.672Z,100021.06
2022-10-25T07:30:10.993Z,100053.91
2022-10-25T07:32:41.574Z,100063.97
2022-10-25T07:35:09.392Z,100063.75
2022-10-25T07:37:36.053Z,100061.72
2022-10-25T07:40:02.802Z,100038.09
2022-10-25T07:42:29.512Z,100062.50
2022-10-25T07:44:56.238Z,100065.91
2022-10-25T07:47:22.906Z,100050.34
2022-10-25T07:49:49.592Z,100039.88
2022-10-25T07:52:16.315Z,100068.41
2022-10-25T07:57:11.247Z,100073.41
2022-10-25T07:59:37.971Z,100072.16
2022-10-25T08:02:04.692Z,100036.50
2022-10-25T08:04:32.980Z,100032.03
2022-10-25T08:07:01.281Z,100055.88
2022-10-25T08:09:38.284Z,100071.06
2022-10-25T08:12:05.509Z,100063.91
2022-10-25T08:14:33.913Z,100069.63
2022-10-25T08:17:03.177Z,100040.25
2022-10-25T08:19:29.845Z,100069.16
2022-10-25T08:21:56.503Z,100028.28
2022-10-25T08:24:23.195Z,100051.78
2022-10-25T08:26:49.951Z,100063.22
2022-10-25T08:29:16.650Z,100067.50
2022-10-25T08:31:43.351Z,100074.28
2022-10-25T08:36:37.731Z,100072.44
2022-10-25T08:39:04.491Z,100074.09
2022-10-25T08:41:51.144Z,100076.34
2022-10-25T08:44:29.796Z,100075.50
2022-10-25T08:47:13.355Z,100067.97
2022-10-25T08:49:49.576Z,100075.38
2022-10-25T08:52:26.211Z,100074.94
2022-10-25T08:54:53.429Z,100049.50
2022-10-25T08:57:25.840Z,100078.38
2022-10-25T08:59:58.844Z,100055.50
2022-10-25T09:02:36.387Z,100063.00
2022-10-25T09:05:03.868Z,100066.78
2022-10-25T09:07:42.974Z,100064.41
2022-10-25T09:10:15.467Z,100059.06
2022-10-25T09:12:50.413Z,100040.38
2022-10-25T09:15:59.253Z,100060.94
2022-10-25T09:18:43.124Z,100052.69
2022-10-25T09:21:22.181Z,100055.38
2022-10-25T09:24:18.596Z,100051.63
2022-10-25T09:27:07.454Z,100034.13
2022-10-25T09:29:39.014Z,100038.88
2022-10-25T09:32:21.724Z,100056.66
2022-10-25T09:34:48.788Z,100047.09
2022-10-25T09:37:28.135Z,100055.19
2022-10-25T09:40:06.621Z,100056.88
2022-10-25T09:42:39.452Z,100069.50
2022-10-25T09:45:25.606Z,100065.47
2022-10-25T09:48:13.336Z,100061.56
2022-10-25T09:50:47.617Z,100054.56
2022-10-25T09:53:18.946Z,100047.88
2022-10-25T09:55:56.531Z,100079.38
2022-10-25T09:58:28.530Z,100067.25
2022-10-25T10:00:58.873Z,100070.81
2022-10-25T10:03:31.928Z,100073.16
2022-10-25T10:06:16.171Z,100063.84
2022-10-25T10:08:49.440Z,100075.34
2022-10-25T10:11:18.654Z,100072.25
2022-10-25T10:14:11.941Z,100062.66
2022-10-25T10:16:59.991Z,100069.03
2022-10-25T10:19:30.023Z,100064.22
2022-10-25T10:22:00.012Z,100063.84
2022-10-25T10:24:33.569Z,100071.03
2022-10-25T10:27:13.474Z,100078.41
2022-10-25T10:30:19.135Z,100078.78
2022-10-25T10:32:45.888Z,100059.50
2022-10-25T10:35:36.638Z,100070.41
2022-10-25T10:38:26.685Z,100080.50
2022-10-25T10:41:15.082Z,100067.78
2022-10-25T10:43:41.985Z,100067.34
2022-10-25T10:46:15.840Z,100050.84
2022-10-25T10:48:45.329Z,100068.53
2022-10-25T10:51:39.057Z,100062.19
2022-10-25T10:54:26.423Z,100062.81
2022-10-25T10:57:01.975Z,100053.56
2022-10-25T10:59:33.993Z,100059.53
2022-10-25T11:02:25.190Z,100068.47
2022-10-25T11:04:55.066Z,100060.03
2022-10-25T11:07:42.254Z,100060.81
2022-10-25T11:10:20.261Z,100064.47
2022-10-25T11:13:05.160Z,100056.72
2022-10-25T11:16:23.133Z,100060.41
2022-10-25T11:19:16.651Z,100044.06
2022-10-25T11:22:04.894Z,100050.91
2022-10-25T11:24:53.193Z,100056.50
2022-10-25T11:27:26.222Z,100046.13
2022-10-25T11:29:55.975Z,100057.91
2022-10-25T11:33:01.744Z,100050.59
2022-10-25T11:36:16.188Z,100051.09
2022-10-25T11:39:03.779Z,100046.53
2022-10-25T11:41:51.118Z,100037.84
2022-10-25T11:44:20.788Z,100045.09
2022-10-25T11:47:10.839Z,100048.44
2022-10-25T11:50:11.616Z,100052.50
2022-10-25T11:53:05.865Z,100047.06
2022-10-25T11:55:48.577Z,100048.47
2022-10-25T11:58:25.156Z,100060.81
2022-10-25T12:01:15.450Z,100054.25
2022-10-25T12:04:06.734Z,100053.69
2022-10-25T12:06:45.222Z,100024.91
2022-10-25T12:09:30.173Z,100042.38
2022-10-25T12:12:20.343Z,100034.72
2022-10-25T12:14:54.509Z,100012.34
2022-10-25T12:17:32.104Z,100020.00
2022-10-25T12:20:03.216Z,100019.94
2022-10-25T12:22:44.003Z,100014.28
2022-10-25T12:25:33.822Z,100010.91
2022-10-25T12:28:23.335Z,100003.91
2022-10-25T12:30:57.549Z,99980.41
2022-10-25T12:33:33.203Z,99991.97
2022-10-25T12:36:04.525Z,99998.75
2022-10-25T12:38:37.508Z,99977.88
2022-10-25T12:41:15.515Z,99986.38
2022-10-25T12:43:56.053Z,100010.19
2022-10-25T12:46:42.930Z,100013.97
2022-10-25T12:49:21.529Z,100024.31
2022-10-25T12:52:35.353Z,100016.03
2022-10-25T12:55:23.619Z,100008.50
2022-10-25T12:58:08.689Z,100018.59
2022-10-25T13:00:56.422Z,100003.09
2022-10-25T13:03:49.938Z,99961.19
2022-10-25T13:06:24.215Z,99989.88
2022-10-25T13:08:51.196Z,99976.13
2022-10-25T13:11:18.177Z,99994.91
2022-10-25T13:13:53.668Z,99996.09
2022-10-25T13:16:25.860Z,99998.63
2022-10-25T13:19:25.744Z,100005.41
2022-10-25T13:22:12.023Z,99998.84
2022-10-25T13:24:43.814Z,99986.69
2022-10-25T13:27:16.456Z,99990.94
2022-10-25T13:29:45.795Z,99989.03
2022-10-25T13:32:20.588Z,99987.44
2022-10-25T13:34:47.643Z,99977.34
2022-10-25T13:37:32.769Z,99987.13
2022-10-25T13:40:25.128Z,99989.56
2022-10-25T13:43:19.408Z,99991.31
2022-10-25T13:45:53.259Z,99989.19
2022-10-25T13:48:26.167Z,99988.81
2022-10-25T13:50:55.623Z,99982.75
2022-10-25T13:53:37.723Z,99967.56
2022-10-25T13:56:07.932Z,99984.97
2022-10-25T13:58:40.661Z,99976.78
2022-10-25T14:01:16.835Z,99983.75
2022-10-25T14:04:02.096Z,99977.19
2022-10-25T14:06:40.825Z,99979.59
2022-10-25T14:09:27.734Z,99970.75
2022-10-25T14:12:11.594Z,99950.75
2022-10-25T14:14:48.221Z,99959.41
2022-10-25T14:17:21.698Z,99940.28
2022-10-25T14:19:51.558Z,99953.63
2022-10-25T14:22:22.913Z,99949.19
2022-10-25T14:24:54.022Z,99938.81
2022-10-25T14:27:35.922Z,99949.47
2022-10-25T14:30:21.260Z,99947.41
2022-10-25T14:32:50.727Z,99938.06
2022-10-25T14:35:18.026Z,99900.50
2022-10-25T14:37:44.946Z,99900.06
2022-10-25T14:40:20.692Z,99927.34
2022-10-25T14:42:47.692Z,99925.47
2022-10-25T14:45:26.375Z,99921.38
2022-10-25T14:47:53.418Z,99920.56
2022-10-25T14:50:25.222Z,99920.56
2022-10-25T14:52:52.930Z,99917.88
2022-10-25T14:55:29.538Z,99924.53
2022-10-25T14:57:58.849Z,99916.72
2022-10-25T15:00:25.829Z,99885.72
2022-10-25T15:03:03.756Z,99883.03
2022-10-25T15:05:30.728Z,99882.91
2022-10-25T15:08:00.109Z,99900.06
2022-10-25T15:10:41.627Z,99875.56
2022-10-25T15:13:21.947Z,99906.13
2022-10-25T15:15:51.195Z,99892.59
2022-10-25T15:18:25.152Z,99890.06
2022-10-25T15:21:17.404Z,99905.00
2022-10-25T15:24:08.715Z,99900.44
2022-10-25T15:26:38.184Z,99865.63
2022-10-25T15:29:06.270Z,99889.44
2022-10-25T15:31:33.064Z,99899.13
2022-10-25T15:34:05.432Z,99904.97
2022-10-25T15:36:33.827Z,99898.88
2022-10-25T15:39:10.530Z,99882.19
2022-10-25T15:41:39.593Z,99896.06
2022-10-25T15:44:06.318Z,99877.56
2022-10-25T15:46:34.914Z,99897.09
2022-10-25T15:49:06.655Z,99891.25
2022-10-25T15:51:36.369Z,99885.81
2022-10-25T15:54:03.473Z,99866.94
2022-10-25T15:56:30.314Z,99883.50
2022-10-25T15:58:58.742Z,99882.25
2022-10-25T16:01:25.748Z,99863.00
2022-10-25T16:03:53.065Z,99899.38
2022-10-25T16:06:19.785Z,99876.03
2022-10-25T16:08:46.509Z,99909.22
2022-10-25T16:11:17.531Z,99908.31
2022-10-25T16:13:47.019Z,99907.59
2022-10-25T16:16:39.233Z,99926.00
2022-10-25T16:19:13.881Z,99922.66
2022-10-25T16:21:41.035Z,99922.16
2022-10-25T16:24:07.884Z,99928.97
2022-10-25T16:26:44.501Z,99925.97
2022-10-25T16:29:16.790Z,99932.63
2022-10-25T16:31:44.126Z,99936.19
2022-10-25T16:34:11.354Z,99931.88
2022-10-25T16:36:38.507Z,99931.31
2022-10-25T16:39:06.324Z,99931.94
2022-10-25T16:41:33.425Z,99939.81
2022-10-25T16:44:00.416Z,99942.72
2022-10-25T16:46:27.310Z,99930.88
2022-10-25T16:48:55.951Z,99942.59
2022-10-25T16:51:25.779Z,99915.50
2022-10-25T16:53:52.568Z,99935.19
2022-10-25T16:56:19.487Z,99933.56
2022-10-25T16:58:46.266Z,99925.59
2022-10-25T17:01:19.592Z,99940.19
2022-10-25T17:03:53.201Z,99916.00
2022-10-25T17:06:41.325Z,99939.81
2022-10-25T17:09:07.942Z,99939.41
2022-10-25T17:11:34.788Z,99912.47
2022-10-25T17:14:01.496Z,99953.72
2022-10-25T17:16:28.296Z,99934.59
2022-10-25T17:18:55.209Z,99953.06
2022-10-25T17:21:22.746Z,99953.03
2022-10-25T17:23:49.658Z,99947.69
2022-10-25T17:26:16.553Z,99949.72
2022-10-25T17:28:44.545Z,99941.09
2022-10-25T17:31:13.905Z,99951.34
2022-10-25T17:33:42.131Z,99949.03
2022-10-25T17:36:14.421Z,99933.03
2022-10-25T17:38:42.316Z,99941.69
2022-10-25T17:41:09.568Z,99942.25
2022-10-25T17:43:38.713Z,99942.84
2022-10-25T17:46:14.128Z,99906.31
2022-10-25T17:48:40.895Z,99938.13
2022-10-25T17:51:09.771Z,99918.19
2022-10-25T17:53:36.569Z,99934.84
2022-10-25T17:56:13.786Z,99930.88
2022-10-25T17:58:42.239Z,99915.03
2022-10-25T18:01:10.293Z,99950.94
2022-10-25T18:03:39.425Z,99945.44
2022-10-25T18:06:09.714Z,99941.94
2022-10-25T18:08:37.047Z,99928.53
2022-10-25T18:11:24.804Z,99960.56
2022-10-25T18:13:56.915Z,99951.31
2022-10-25T18:16:27.410Z,99951.13
2022-10-25T18:18:55.895Z,99946.38
2022-10-25T18:21:22.742Z,99952.06
2022-10-25T18:23:49.459Z,99951.03
2022-10-25T18:26:17.598Z,99943.47
2022-10-25T18:28:44.359Z,99954.25
2022-10-25T18:31:13.488Z,99965.91
2022-10-25T18:33:42.460Z,99967.56
2022-10-25T18:36:12.381Z,99963.44
2022-10-25T18:38:39.036Z,99964.06
2022-10-25T18:41:11.169Z,99956.41
2022-10-25T18:43:37.969Z,99941.56
2022-10-25T18:46:04.878Z,99941.94
2022-10-25T18:48:31.800Z,99954.72
2022-10-25T18:51:10.824Z,99954.06
2022-10-25T18:53:41.125Z,99949.34
2022-10-25T18:56:09.800Z,99949.75
2022-10-25T18:58:36.602Z,99934.53
2022-10-25T19:01:16.536Z,99939.44
2022-10-25T19:03:44.270Z,99943.75
2022-10-25T19:06:11.560Z,99936.16
2022-10-25T19:08:38.739Z,99941.84
2022-10-25T19:11:10.270Z,99933.66
2022-10-25T19:13:37.233Z,99936.41
2022-10-25T19:16:04.587Z,99911.97
2022-10-25T19:18:32.473Z,99910.25
2022-10-25T19:21:07.525Z,99943.72
2022-10-25T19:23:34.601Z,99945.84
2022-10-25T19:26:03.670Z,99944.88
2022-10-25T19:28:31.200Z,99947.25
2022-10-25T19:31:04.299Z,99939.88
2022-10-25T19:33:31.024Z,99875.88
2022-10-25T19:36:10.087Z,99941.75
2022-10-25T19:38:37.645Z,99947.81
2022-10-25T19:41:06.764Z,99936.19
2022-10-25T19:43:34.051Z,99927.91
2022-10-25T19:46:04.712Z,99921.94
2022-10-25T19:48:31.995Z,99918.69
2022-10-25T19:51:04.660Z,99935.56
2022-10-25T19:53:31.995Z,99925.88
2022-10-25T19:56:00.250Z,99906.59
2022-10-25T19:58:27.245Z,99933.84
2022-10-25T20:01:01.527Z,99909.63
2022-10-25T20:03:28.428Z,99931.19
2022-10-25T20:06:00.482Z,99932.38
2022-10-25T20:08:27.588Z,99931.88
2022-10-25T20:10:54.621Z,99913.97
2022-10-25T20:13:21.348Z,99907.22
2022-10-25T20:15:52.665Z,99916.78
2022-10-25T20:18:19.923Z,99914.50
2022-10-25T20:20:51.762Z,99927.47
2022-10-25T20:23:20.559Z,99931.38
2022-10-25T20:25:47.292Z,99926.88
2022-10-25T20:28:14.196Z,99923.88
2022-10-25T20:30:41.011Z,99923.91
2022-10-25T20:33:08.634Z,99918.81
2022-10-25T20:35:39.820Z,99913.69
2022-10-25T20:38:07.210Z,99926.00
2022-10-25T20:40:34.614Z,99926.84
2022-10-25T20:43:01.483Z,99897.03
2022-10-25T20:45:29.436Z,99914.94
2022-10-25T20:47:57.735Z,99923.53
2022-10-25T20:50:26.579Z,99902.25
2022-10-25T20:55:40.254Z,99888.88
2022-10-25T20:58:07.003Z,99893.56
2022-10-25T21:00:33.734Z,99881.78
2022-10-25T21:03:00.389Z,99902.56
2022-10-25T21:05:27.512Z,99906.28
2022-10-25T21:07:54.232Z,99900.41
2022-10-25T21:10:20.919Z,99901.66
2022-10-25T21:12:47.730Z,99901.28
2022-10-25T21:15:14.652Z,99895.78
2022-10-25T21:17:41.392Z,99898.28
2022-10-25T21:20:08.703Z,99874.06
2022-10-25T21:22:35.375Z,99890.50
2022-10-25T21:25:02.119Z,99891.72
2022-10-25T21:27:28.926Z,99873.19
2022-10-25T21:29:55.740Z,99888.06
2022-10-25T21:32:22.819Z,99895.06
2022-10-25T21:34:49.589Z,99893.66
2022-10-25T21:37:16.481Z,99891.00
2022-10-25T21:39:43.562Z,99894.69
2022-10-25T21:42:10.274Z,99873.53
2022-10-25T21:44:37.066Z,99862.91
2022-10-25T21:47:03.734Z,99896.81
2022-10-25T21:49:30.752Z,99890.28
2022-10-25T21:51:57.607Z,99885.78
2022-10-25T21:54:25.047Z,99902.22
2022-10-25T21:56:52.635Z,99877.41
2022-10-25T21:59:20.035Z,99889.31
2022-10-25T22:01:47.284Z,99899.38
2022-10-25T22:04:16.287Z,99902.22
2022-10-25T22:06:42.996Z,99875.97
2022-10-25T22:09:09.820Z,99897.75
2022-10-25T22:11:38.269Z,99893.69
2022-10-25T22:23:13.409Z,99872.03
2022-10-25T22:25:40.089Z,99864.25
2022-10-25T22:28:06.778Z,99856.84
2022-10-25T22:30:33.501Z,99862.16
2022-10-25T22:33:00.179Z,99856.13
2022-10-25T22:35:27.088Z,99859.63
2022-10-25T22:37:53.761Z,99877.00
2022-10-25T22:40:20.383Z,99881.25
2022-10-25T22:42:47.099Z,99866.47
2022-10-25T22:45:13.857Z,99882.13
2022-10-25T22:47:40.544Z,99840.25
2022-10-25T22:50:07.402Z,99845.19
2022-10-25T22:52:34.286Z,99872.06
2022-10-25T22:55:00.978Z,99868.19
2022-10-25T22:57:29.512Z,99873.09
2022-10-25T22:59:56.160Z,99862.09
2022-10-25T23:02:22.896Z,99857.41
2022-10-25T23:04:49.509Z,99855.56
2022-10-25T23:07:16.228Z,99854.38
2022-10-25T23:09:42.876Z,99856.63
2022-10-25T23:12:09.503Z,99853.56
2022-10-25T23:14:36.147Z,99849.03
2022-10-25T23:17:02.804Z,99834.28
2022-10-25T23:19:29.460Z,99832.84
2022-10-25T23:21:56.154Z,99849.81
2022-10-25T23:24:22.758Z,99876.25
2022-10-25T23:26:49.485Z,99890.84
2022-10-25T23:29:16.183Z,99900.44
2022-10-25T23:31:42.804Z,99892.25
2022-10-25T23:34:10.417Z,99878.47
2022-10-25T23:36:37.773Z,99876.75
2022-10-25T23:39:07.291Z,99870.88
2022-10-25T23:41:34.049Z,99872.63
2022-10-25T23:44:00.782Z,99868.13
2022-10-25T23:46:27.410Z,99858.59
2022-10-25T23:48:54.038Z,99844.03
2022-10-25T23:51:20.705Z,99865.38
2022-10-25T23:53:48.676Z,99849.44
2022-10-25T23:56:15.531Z,99828.19
2022-10-25T23:58:42.313Z,99828.69
